Time;durP1;ratioP1;P1;durP2;ratioP2;P2;SDS_P1;SDS_P2;PMS_P1;PMS_P2;Temp;Humidity;BMP_temperature;BMP_pressure;BME280_temperature;BME280_humidity;BME280_pressure;Samples;Min_cycle;Max_cycle;Signal;HPM_P1;HPM_P2
2022/03/29 00:01:53;;;;;;;23.67;11.90;;;26.80;99.00;;;;;;4161090;28;20750;-72
2022/03/29 00:04:17;;;;;;;17.00;10.85;;;26.80;98.80;;;;;;4157876;28;20061;-71
2022/03/29 00:06:41;;;;;;;17.63;10.70;;;26.90;98.60;;;;;;4159271;28;20451;-72
2022/03/29 00:09:05;;;;;;;15.80;10.55;;;26.80;98.40;;;;;;4158114;28;20129;-72
2022/03/29 00:11:17;;;;;;;16.70;10.63;;;26.80;98.20;;;;;;4159250;28;20061;-73
2022/03/29 00:13:44;;;;;;;15.63;9.95;;;26.90;97.90;;;;;;4160517;28;20049;-72
2022/03/29 00:16:09;;;;;;;;;;;26.80;97.90;;;;;;4175971;28;20491;-72
2022/03/29 00:18:49;;;;;;;16.67;10.13;;;26.80;97.80;;;;;;4159306;28;20276;-72
2022/03/29 00:20:59;;;;;;;17.77;9.93;;;26.80;97.80;;;;;;4159384;28;20045;-72
2022/03/29 00:23:11;;;;;;;;;;;26.80;97.80;;;;;;3279149;28;10000983;-72
2022/03/29 00:25:35;;;;;;;15.68;9.95;;;26.90;97.80;;;;;;4144216;28;20036;-72
2022/03/29 00:27:52;;;;;;;14.93;10.65;;;26.90;97.80;;;;;;4153726;28;20041;-71
2022/03/29 00:30:11;;;;;;;19.35;11.20;;;27.00;98.10;;;;;;3270899;28;10000890;-72
2022/03/29 00:32:34;;;;;;;20.08;10.50;;;27.00;97.80;;;;;;4160435;28;20056;-71
2022/03/29 00:34:52;;;;;;;18.35;10.55;;;27.00;97.70;;;;;;4158033;28;20049;-72
2022/03/29 00:37:07;;;;;;;19.88;9.75;;;27.10;97.70;;;;;;4161636;28;20551;-70
2022/03/29 00:39:31;;;;;;;19.77;10.40;;;27.10;97.50;;;;;;4161010;28;20065;-72
2022/03/29 00:41:42;;;;;;;23.58;11.00;;;27.20;97.50;;;;;;4159110;28;20049;-69
2022/03/29 00:44:06;;;;;;;21.55;9.32;;;27.20;97.50;;;;;;4161167;28;20077;-72
2022/03/29 00:46:22;;;;;;;22.77;11.25;;;27.20;97.50;;;;;;4162972;28;20045;-71
2022/03/29 00:48:49;;;;;;;17.98;10.60;;;27.20;97.60;;;;;;4149718;28;20099;-71
2022/03/29 00:51:00;;;;;;;21.58;10.35;;;27.30;97.70;;;;;;4152461;28;20484;-71
2022/03/29 00:53:23;;;;;;;15.50;9.63;;;27.30;97.70;;;;;;4157003;28;20822;-72
2022/03/29 00:55:41;;;;;;;14.10;9.70;;;27.30;97.60;;;;;;4152484;28;20049;-69
2022/03/29 00:58:09;;;;;;;15.02;9.65;;;27.30;97.40;;;;;;4151641;28;20053;-68
2022/03/29 01:00:32;;;;;;;14.10;10.27;;;27.30;97.60;;;;;;4147956;28;20719;-70
2022/03/29 01:02:56;;;;;;;14.07;9.77;;;27.30;97.50;;;;;;4127943;28;20054;-69
2022/03/29 01:05:12;;;;;;;15.32;10.15;;;27.30;97.60;;;;;;4144111;28;20092;-71
2022/03/29 01:07:27;;;;;;;22.50;10.95;;;27.20;97.70;;;;;;4148973;28;20061;-71
2022/03/29 01:09:38;;;;;;;19.10;11.63;;;27.10;97.80;;;;;;4147611;28;20496;-70
2022/03/29 01:11:48;;;;;;;18.10;10.90;;;27.20;97.60;;;;;;4141718;28;20049;-68
2022/03/29 01:13:53;;;;;;;18.42;10.85;;;27.20;97.50;;;;;;4142603;28;20046;-71
2022/03/29 01:18:47;;;;;;;16.40;10.43;;;27.30;97.50;;;;;;4145921;28;20053;-70
2022/03/29 01:20:57;;;;;;;14.90;11.18;;;27.30;97.30;;;;;;4148578;28;20165;-70
2022/03/29 01:23:14;;;;;;;17.00;10.65;;;27.40;97.30;;;;;;4122663;28;20105;-71
2022/03/29 01:25:40;;;;;;;17.75;10.23;;;27.30;97.10;;;;;;4111968;28;20053;-70
2022/03/29 01:27:53;;;;;;;15.82;10.80;;;27.30;97.20;;;;;;4124870;28;20062;-70
2022/03/29 01:30:11;;;;;;;12.73;10.48;;;27.30;97.20;;;;;;4140751;28;20042;-71
2022/03/29 01:32:39;;;;;;;20.85;10.38;;;27.40;97.10;;;;;;4140537;28;20112;-70
2022/03/29 01:34:49;;;;;;;19.80;10.75;;;27.40;97.40;;;;;;4150313;28;20132;-71
2022/03/29 01:36:58;;;;;;;16.13;10.05;;;27.30;97.30;;;;;;4125796;28;20140;-71
2022/03/29 01:39:07;;;;;;;16.13;9.85;;;27.40;97.30;;;;;;4141099;28;20053;-66
2022/03/29 01:41:32;;;;;;;14.45;9.88;;;27.50;97.30;;;;;;4141267;28;20058;-69
2022/03/29 01:43:50;;;;;;;21.63;10.68;;;27.50;97.30;;;;;;4141091;28;20495;-70
2022/03/29 01:46:00;;;;;;;15.38;10.85;;;27.60;97.30;;;;;;4140702;28;20046;-70
2022/03/29 01:48:17;;;;;;;16.10;10.13;;;27.70;96.90;;;;;;4142497;28;20049;-69
2022/03/29 01:50:41;;;;;;;19.55;11.20;;;27.60;97.00;;;;;;4116788;28;20061;-70
2022/03/29 01:53:07;;;;;;;15.40;10.60;;;27.60;97.50;;;;;;4143304;28;20125;-70
2022/03/29 01:55:33;;;;;;;16.05;10.85;;;27.60;97.30;;;;;;4159915;28;20050;-70
2022/03/29 01:57:56;;;;;;;18.00;10.20;;;27.50;97.40;;;;;;4161939;28;20088;-68
2022/03/29 02:00:32;;;;;;;19.92;11.10;;;27.50;97.50;;;;;;4157415;28;20539;-70
2022/03/29 02:02:59;;;;;;;18.98;12.65;;;27.50;98.40;;;;;;4163837;28;20074;-71
2022/03/29 02:05:27;;;;;;;18.23;11.60;;;27.40;99.90;;;;;;4164933;28;20063;-71
2022/03/29 02:07:42;;;;;;;17.67;12.75;;;27.30;99.90;;;;;;4159801;28;20050;-71
2022/03/29 02:09:58;;;;;;;16.27;12.57;;;27.10;99.80;;;;;;4164530;28;20054;-70
2022/03/29 02:12:24;;;;;;;17.80;13.25;;;26.90;99.90;;;;;;4180596;28;20057;-72
2022/03/29 02:14:35;;;;;;;22.03;13.37;;;26.50;99.90;;;;;;4142147;28;20057;-71
2022/03/29 02:16:51;;;;;;;20.10;12.32;;;26.60;99.90;;;;;;4159189;28;20075;-71
2022/03/29 02:19:15;;;;;;;20.05;12.80;;;26.50;99.90;;;;;;4147202;28;20084;-71
2022/03/29 02:21:34;;;;;;;19.15;12.98;;;26.70;99.90;;;;;;4159154;28;20064;-71
2022/03/29 02:23:47;;;;;;;16.40;12.32;;;26.70;99.90;;;;;;4161960;28;20053;-70
2022/03/29 02:26:12;;;;;;;17.55;12.00;;;26.70;99.90;;;;;;4132911;28;20069;-71
2022/03/29 02:28:36;;;;;;;16.20;11.88;;;26.60;99.90;;;;;;4163451;28;20038;-73
2022/03/29 02:31:04;;;;;;;17.63;11.27;;;26.60;99.90;;;;;;4131787;28;20103;-70
2022/03/29 02:33:22;;;;;;;14.10;10.95;;;26.50;99.90;;;;;;4155912;28;20048;-72
2022/03/29 02:35:35;;;;;;;19.35;11.85;;;26.60;99.90;;;;;;4169263;28;20504;-69
2022/03/29 02:38:02;;;;;;;15.02;11.18;;;26.70;99.90;;;;;;4143843;28;20084;-70
2022/03/29 02:40:26;;;;;;;17.27;11.20;;;26.70;99.90;;;;;;4153407;28;20072;-70
2022/03/29 02:42:52;;;;;;;14.90;10.90;;;26.70;99.90;;;;;;4155470;28;20049;-71
2022/03/29 02:45:07;;;;;;;14.75;10.50;;;26.60;99.90;;;;;;4157351;28;20072;-69
2022/03/29 02:47:30;;;;;;;11.68;10.18;;;26.70;99.80;;;;;;4156022;28;20123;-67
2022/03/29 02:49:47;;;;;;;14.65;10.13;;;26.60;99.70;;;;;;4156295;28;20080;-70
2022/03/29 02:52:10;;;;;;;13.00;10.63;;;26.40;99.90;;;;;;4139968;28;20049;-72
2022/03/29 02:54:38;;;;;;;14.15;10.15;;;26.60;99.90;;;;;;4143152;28;20276;-72
2022/03/29 02:56:59;;;;;;;13.98;10.07;;;26.50;99.90;;;;;;4130614;28;20413;-71
2022/03/29 02:59:26;;;;;;;13.43;10.13;;;26.10;99.90;;;;;;4159754;28;20107;-71
2022/03/29 03:01:37;;;;;;;12.82;10.07;;;26.20;99.90;;;;;;4152016;28;20053;-72
2022/03/29 03:03:53;;;;;;;15.88;9.50;;;26.40;99.90;;;;;;4153525;28;20132;-69
2022/03/29 03:06:20;;;;;;;13.27;9.25;;;26.50;99.90;;;;;;4153476;28;20111;-69
2022/03/29 03:08:46;;;;;;;12.15;8.35;;;26.60;99.90;;;;;;4151104;28;20149;-68
2022/03/29 03:10:54;;;;;;;14.13;8.77;;;26.60;99.90;;;;;;4120652;28;20152;-70
2022/03/29 03:13:00;;;;;;;12.20;7.70;;;26.50;99.90;;;;;;4154048;28;20978;-70
2022/03/29 03:15:26;;;;;;;9.88;7.28;;;26.60;99.90;;;;;;4151409;28;20049;-68
2022/03/29 03:17:36;;;;;;;8.60;6.80;;;26.60;99.90;;;;;;4152815;28;20510;-70
2022/03/29 03:20:00;;;;;;;7.80;6.13;;;26.50;99.90;;;;;;4159699;28;20041;-70
2022/03/29 03:22:11;;;;;;;7.78;5.90;;;26.50;99.90;;;;;;4161329;28;20043;-69
2022/03/29 03:24:22;;;;;;;8.70;6.82;;;26.50;99.20;;;;;;4161332;28;20365;-70
2022/03/29 03:26:35;;;;;;;9.77;6.72;;;26.80;99.70;;;;;;4161114;28;20049;-69
2022/03/29 03:28:42;;;;;;;18.35;7.07;;;26.90;99.40;;;;;;4158560;28;20041;-68
2022/03/29 03:30:51;;;;;;;12.38;7.75;;;27.00;99.50;;;;;;4159921;28;20111;-68
2022/03/29 03:32:57;;;;;;;10.50;7.53;;;27.20;99.30;;;;;;4159859;28;20128;-69
2022/03/29 03:35:16;;;;;;;11.43;7.82;;;27.20;98.90;;;;;;4158554;28;20053;-68
2022/03/29 03:37:22;;;;;;;11.43;8.00;;;27.40;98.90;;;;;;4162287;28;20069;-67
2022/03/29 03:39:34;;;;;;;13.88;7.75;;;27.50;99.20;;;;;;4161069;28;20551;-68
2022/03/29 03:41:48;;;;;;;10.75;7.40;;;27.60;99.10;;;;;;4161006;28;20034;-68
2022/03/29 03:43:59;;;;;;;13.18;7.38;;;27.50;98.60;;;;;;4161874;28;20053;-68
2022/03/29 03:46:07;;;;;;;12.35;6.70;;;27.60;98.60;;;;;;4162290;28;20373;-68
2022/03/29 03:48:26;;;;;;;11.60;7.13;;;27.70;98.20;;;;;;4162621;28;20551;-69
2022/03/29 03:50:31;;;;;;;8.63;6.45;;;27.70;98.20;;;;;;4155975;28;20054;-69
2022/03/29 03:52:39;;;;;;;9.02;6.97;;;27.80;98.00;;;;;;4160145;28;20253;-69
2022/03/29 03:54:48;;;;;;;9.00;6.43;;;27.80;98.20;;;;;;4160986;28;20562;-69
2022/03/29 03:56:54;;;;;;;9.20;6.80;;;27.80;98.20;;;;;;4162555;28;20072;-69
2022/03/29 03:59:03;;;;;;;9.32;6.68;;;27.60;97.50;;;;;;4160409;28;20038;-69
2022/03/29 04:01:12;;;;;;;7.70;6.18;;;27.80;97.50;;;;;;4161612;28;20049;-69
2022/03/29 04:03:36;;;;;;;9.35;6.43;;;27.90;97.60;;;;;;4159831;28;20112;-69
2022/03/29 04:05:45;;;;;;;9.77;6.22;;;27.80;97.50;;;;;;4161866;28;20488;-69
2022/03/29 04:07:52;;;;;;;10.30;6.40;;;27.80;97.20;;;;;;4161744;28;20044;-68
2022/03/29 04:10:14;;;;;;;7.60;5.63;;;27.90;97.30;;;;;;4162339;28;20050;-69
2022/03/29 04:12:30;;;;;;;8.35;6.05;;;28.00;97.10;;;;;;4162080;28;20045;-69
2022/03/29 04:14:46;;;;;;;9.02;5.50;;;27.70;96.40;;;;;;4161585;28;20053;-68
2022/03/29 04:16:56;;;;;;;8.25;5.50;;;27.50;97.40;;;;;;4145268;28;20053;-70
2022/03/29 04:19:07;;;;;;;8.27;5.30;;;27.50;97.20;;;;;;4162342;28;20056;-69
2022/03/29 04:21:15;;;;;;;6.47;4.88;;;27.80;97.10;;;;;;4159556;28;20512;-69
2022/03/29 04:23:40;;;;;;;7.30;5.72;;;28.10;96.80;;;;;;4164130;28;20481;-69
2022/03/29 04:28:25;;;;;;;6.80;5.32;;;28.00;97.20;;;;;;4149381;28;20042;-69
2022/03/29 04:30:35;;;;;;;8.95;5.65;;;27.90;96.50;;;;;;4160314;28;20065;-69
2022/03/29 04:32:46;;;;;;;6.68;5.40;;;28.00;96.80;;;;;;4161814;28;20045;-69
2022/03/29 04:34:51;;;;;;;7.22;5.00;;;27.90;97.00;;;;;;4161164;28;20044;-68
2022/03/29 04:37:02;;;;;;;7.25;4.70;;;27.60;97.30;;;;;;4160995;28;20096;-69
2022/03/29 04:39:13;;;;;;;7.78;5.40;;;27.50;97.70;;;;;;4158016;28;20396;-69
2022/03/29 04:41:24;;;;;;;7.97;5.00;;;27.50;97.10;;;;;;4159921;28;20049;-69
2022/03/29 04:43:45;;;;;;;10.45;5.80;;;28.00;96.50;;;;;;4160553;28;20072;-68
2022/03/29 04:46:09;;;;;;;7.60;5.38;;;28.30;96.00;;;;;;4160203;28;20065;-68
2022/03/29 04:48:23;;;;;;;7.40;5.18;;;28.40;95.70;;;;;;4161014;28;20049;-68
2022/03/29 04:50:38;;;;;;;7.22;5.13;;;28.60;95.80;;;;;;4183031;28;20407;-69
2022/03/29 04:52:51;;;;;;;7.72;5.38;;;28.50;96.00;;;;;;4159289;28;20041;-69
2022/03/29 04:55:06;;;;;;;9.82;5.95;;;28.50;96.00;;;;;;4156287;28;20075;-68
2022/03/29 04:57:25;;;;;;;10.85;6.15;;;28.60;95.50;;;;;;4157609;28;20064;-67
2022/03/29 04:59:42;;;;;;;12.40;6.10;;;28.70;95.30;;;;;;4157533;28;20057;-68
2022/03/29 05:02:01;;;;;;;11.27;5.85;;;28.80;95.00;;;;;;4158113;28;20508;-68
2022/03/29 05:04:09;;;;;;;10.18;6.15;;;28.80;95.00;;;;;;4153470;28;20688;-69
2022/03/29 05:06:24;;;;;;;10.98;7.68;;;28.90;95.20;;;;;;4156780;28;20080;-66
2022/03/29 05:08:45;;;;;;;9.95;5.45;;;29.00;95.90;;;;;;4144171;28;20067;-66
2022/03/29 05:10:52;;;;;;;5.65;5.07;;;28.70;95.80;;;;;;4184079;28;20060;-66
2022/03/29 05:12:59;;;;;;;7.72;5.45;;;28.60;95.30;;;;;;4159565;28;20664;-65
2022/03/29 05:15:09;;;;;;;9.23;5.47;;;28.20;96.30;;;;;;4156165;28;20055;-66
2022/03/29 05:17:18;;;;;;;6.97;5.10;;;28.00;96.30;;;;;;4143101;28;20380;-66
2022/03/29 05:19:38;;;;;;;6.75;5.10;;;27.90;96.40;;;;;;4158444;28;20049;-66
2022/03/29 05:22:00;;;;;;;6.53;5.03;;;28.00;96.90;;;;;;4127496;28;20047;-67
2022/03/29 05:24:09;;;;;;;6.20;4.90;;;28.30;95.60;;;;;;4128133;28;20156;-67
2022/03/29 05:26:21;;;;;;;6.55;4.78;;;28.50;95.10;;;;;;4158544;28;20107;-67
2022/03/29 05:28:29;;;;;;;5.70;4.65;;;28.30;96.40;;;;;;4146003;28;20053;-67
2022/03/29 05:30:45;;;;;;;7.10;4.43;;;28.40;95.90;;;;;;4180263;28;20045;-67
2022/03/29 05:33:00;;;;;;;5.55;4.20;;;28.40;96.30;;;;;;4141644;28;20077;-66
2022/03/29 05:35:08;;;;;;;5.47;4.55;;;28.50;96.80;;;;;;4158431;28;20045;-67
2022/03/29 05:37:20;;;;;;;9.20;4.22;;;28.40;96.90;;;;;;4159444;28;20087;-67
2022/03/29 05:39:39;;;;;;;5.05;4.18;;;28.10;96.90;;;;;;4141966;28;20141;-67
2022/03/29 05:41:52;;;;;;;5.53;4.13;;;28.00;96.90;;;;;;4161555;28;20045;-66
2022/03/29 05:44:03;;;;;;;6.45;4.72;;;27.70;98.00;;;;;;4145041;28;20112;-67
2022/03/29 05:50:52;;;;;;;5.95;4.47;;;28.40;96.70;;;;;;4161472;28;20046;-66
2022/03/29 05:53:03;;;;;;;5.43;4.30;;;28.50;96.50;;;;;;4127388;28;20046;-66
2022/03/29 05:55:25;;;;;;;8.48;4.78;;;28.50;96.10;;;;;;4135563;28;20034;-66
2022/03/29 05:57:35;;;;;;;5.75;4.20;;;28.60;96.40;;;;;;4145965;28;20057;-66
2022/03/29 05:59:41;;;;;;;5.70;4.60;;;28.60;96.30;;;;;;4164309;28;20058;-66
2022/03/29 06:01:49;;;;;;;7.28;4.82;;;28.80;96.40;;;;;;4164439;28;20037;-67
2022/03/29 06:03:57;;;;;;;4.85;4.38;;;28.70;96.30;;;;;;4164672;28;20045;-67
2022/03/29 06:06:05;;;;;;;5.28;3.83;;;28.60;96.90;;;;;;4163551;28;20099;-67
2022/03/29 06:08:16;;;;;;;7.53;4.63;;;28.60;96.60;;;;;;4162517;28;20120;-67
2022/03/29 06:10:23;;;;;;;5.78;4.30;;;28.60;96.90;;;;;;4163034;28;20564;-66
2022/03/29 06:12:33;;;;;;;5.55;4.22;;;28.70;96.50;;;;;;4162497;28;20797;-67
2022/03/29 06:14:40;;;;;;;5.30;4.80;;;28.90;96.70;;;;;;4162918;28;20041;-67
2022/03/29 06:16:45;;;;;;;4.78;3.95;;;29.10;96.60;;;;;;4160203;28;20053;-67
2022/03/29 06:18:51;;;;;;;4.95;4.45;;;29.10;96.10;;;;;;4160125;28;20045;-66
2022/03/29 06:20:58;;;;;;;5.90;4.43;;;29.20;96.20;;;;;;4160129;28;20045;-67
2022/03/29 06:23:05;;;;;;;8.52;4.65;;;29.20;95.90;;;;;;4163717;28;20087;-67
2022/03/29 06:25:13;;;;;;;6.95;4.38;;;29.40;95.90;;;;;;4163401;28;20052;-67
2022/03/29 06:27:22;;;;;;;6.25;5.05;;;29.50;95.30;;;;;;4162682;28;20037;-67
2022/03/29 06:29:45;;;;;;;7.78;4.97;;;29.60;95.20;;;;;;4162366;28;20046;-67
2022/03/29 06:31:54;;;;;;;8.32;5.38;;;29.80;95.00;;;;;;4163689;28;20061;-67
2022/03/29 06:34:02;;;;;;;6.40;5.70;;;29.70;95.20;;;;;;4162896;28;20041;-67
2022/03/29 06:36:08;;;;;;;8.52;5.45;;;29.70;95.40;;;;;;4163064;28;20041;-67
2022/03/29 06:38:20;;;;;;;8.10;5.80;;;29.60;94.90;;;;;;4161988;28;20088;-67
2022/03/29 06:40:28;;;;;;;6.47;5.22;;;29.70;94.20;;;;;;4160722;28;20064;-67
2022/03/29 06:42:35;;;;;;;8.30;5.53;;;29.70;94.40;;;;;;4166573;28;20447;-66
2022/03/29 06:44:41;;;;;;;6.78;4.97;;;29.70;94.50;;;;;;4162263;28;20483;-67
2022/03/29 06:46:50;;;;;;;8.00;5.50;;;29.70;95.00;;;;;;4162082;28;20037;-66
2022/03/29 06:48:57;;;;;;;7.38;5.53;;;29.50;94.60;;;;;;4160980;28;20129;-67
2022/03/29 06:51:04;;;;;;;9.02;5.72;;;29.50;94.70;;;;;;4181432;28;20045;-67
2022/03/29 06:53:19;;;;;;;7.53;6.05;;;29.60;94.70;;;;;;4153324;28;20144;-66
2022/03/29 06:55:27;;;;;;;10.80;5.93;;;29.70;94.40;;;;;;4154274;28;20054;-67
2022/03/29 06:57:43;;;;;;;8.85;6.40;;;29.70;94.20;;;;;;4153980;28;20045;-66
2022/03/29 06:59:47;;;;;;;6.80;6.07;;;29.90;94.30;;;;;;4152883;28;20084;-67
2022/03/29 07:01:52;;;;;;;7.97;6.78;;;30.00;94.30;;;;;;4150514;28;20071;-67
2022/03/29 07:03:59;;;;;;;9.48;6.10;;;30.10;94.30;;;;;;4153670;28;20614;-67
2022/03/29 07:06:05;;;;;;;6.70;5.63;;;30.10;94.10;;;;;;4152112;28;20050;-66
2022/03/29 07:08:16;;;;;;;6.47;5.47;;;30.20;94.10;;;;;;4152636;28;20539;-66
2022/03/29 07:12:54;;;;;;;9.88;6.00;;;30.20;93.40;;;;;;4154259;28;20122;-67
2022/03/29 07:14:59;;;;;;;6.78;6.00;;;30.10;93.80;;;;;;4153865;28;20068;-67
2022/03/29 07:17:10;;;;;;;9.65;6.72;;;30.00;94.40;;;;;;4154496;28;20059;-66
2022/03/29 07:19:27;;;;;;;7.10;5.95;;;29.70;93.80;;;;;;4152662;28;20475;-67
2022/03/29 07:21:42;;;;;;;7.55;6.28;;;29.50;94.60;;;;;;4152950;28;20076;-66
2022/03/29 07:23:47;;;;;;;7.55;5.93;;;29.70;94.40;;;;;;4151754;28;20821;-68
2022/03/29 07:25:51;;;;;;;7.47;6.10;;;29.90;94.30;;;;;;4154465;28;20049;-67
2022/03/29 07:27:57;;;;;;;8.15;6.57;;;29.80;93.80;;;;;;4154890;28;20041;-67
2022/03/29 07:30:22;;;;;;;7.25;6.53;;;29.40;94.00;;;;;;4153831;28;20099;-67
2022/03/29 07:32:32;;;;;;;9.63;6.50;;;29.60;94.40;;;;;;4154446;28;20522;-66
2022/03/29 07:34:47;;;;;;;9.50;6.72;;;29.70;94.10;;;;;;4153683;28;20055;-67
2022/03/29 07:36:56;;;;;;;8.57;6.78;;;30.00;94.10;;;;;;4154262;28;20136;-66
2022/03/29 07:39:00;;;;;;;8.05;6.60;;;30.10;94.50;;;;;;4155035;28;20451;-68
2022/03/29 07:41:08;;;;;;;8.57;6.35;;;30.00;94.50;;;;;;4152717;28;20195;-67
2022/03/29 07:43:19;;;;;;;8.32;6.10;;;29.90;94.40;;;;;;4155738;28;20047;-67
2022/03/29 07:45:47;;;;;;;7.15;5.78;;;29.90;94.00;;;;;;4155674;28;20119;-66
2022/03/29 07:48:02;;;;;;;7.40;6.60;;;30.00;94.00;;;;;;4154024;28;20046;-66
2022/03/29 07:50:35;;;;;;;7.22;6.47;;;29.90;94.20;;;;;;4135102;28;20352;-67
2022/03/29 07:52:43;;;;;;;8.90;6.25;;;30.00;94.50;;;;;;4137096;28;20050;-67
2022/03/29 07:54:48;;;;;;;8.57;6.25;;;30.00;93.60;;;;;;4137312;28;20501;-68
2022/03/29 07:56:58;;;;;;;7.28;5.60;;;29.80;93.80;;;;;;4136519;28;20054;-67
2022/03/29 07:59:06;;;;;;;8.07;6.53;;;29.90;93.60;;;;;;4135294;28;20467;-66
2022/03/29 08:01:17;;;;;;;;;;;29.80;93.70;;;;;;4135280;28;20084;-67
2022/03/29 08:03:39;;;;;;;11.45;6.70;;;29.90;94.60;;;;;;4135622;28;20753;-67
2022/03/29 08:05:47;;;;;;;9.18;7.05;;;29.90;94.30;;;;;;4135537;28;20045;-67
2022/03/29 08:07:52;;;;;;;11.57;7.47;;;29.60;94.80;;;;;;4134832;28;20046;-66
2022/03/29 08:10:01;;;;;;;10.50;7.57;;;29.70;94.70;;;;;;4135473;28;20054;-66
2022/03/29 08:12:21;;;;;;;7.72;6.93;;;29.90;94.50;;;;;;4135305;28;20141;-67
2022/03/29 08:14:38;;;;;;;7.35;6.55;;;30.00;94.80;;;;;;4134027;28;20054;-67
2022/03/29 08:16:44;;;;;;;9.70;7.05;;;30.00;94.60;;;;;;4135325;28;20093;-66
2022/03/29 08:18:55;;;;;;;8.55;6.97;;;30.10;94.00;;;;;;4135495;28;20068;-67
2022/03/29 08:21:01;;;;;;;8.48;6.90;;;30.20;94.20;;;;;;4135095;28;20052;-66
2022/03/29 08:23:09;;;;;;;8.23;6.35;;;29.90;93.70;;;;;;4134638;28;20054;-67
2022/03/29 08:25:18;;;;;;;8.65;6.63;;;29.70;94.60;;;;;;4135413;28;20076;-67
2022/03/29 08:27:26;;;;;;;8.02;6.10;;;29.70;94.30;;;;;;4136118;28;20133;-67
2022/03/29 08:29:38;;;;;;;7.38;5.88;;;29.70;94.40;;;;;;4152443;28;20423;-67
2022/03/29 08:31:49;;;;;;;8.63;5.90;;;29.50;93.40;;;;;;4152575;28;20056;-67
2022/03/29 08:33:54;;;;;;;7.07;5.93;;;29.60;93.80;;;;;;4153681;28;20083;-67
2022/03/29 08:36:03;;;;;;;7.68;6.10;;;29.60;93.50;;;;;;4154176;28;20092;-68
2022/03/29 08:38:17;;;;;;;;;;;29.70;94.20;;;;;;4153660;28;20045;-67
2022/03/29 08:40:28;;;;;;;6.75;5.47;;;29.70;93.90;;;;;;4152322;28;20022;-67
2022/03/29 08:42:42;;;;;;;7.55;6.10;;;29.80;93.70;;;;;;4152326;28;20055;-67
2022/03/29 08:44:48;;;;;;;11.52;5.43;;;30.00;93.70;;;;;;4153803;28;20049;-67
2022/03/29 08:46:53;;;;;;;8.27;5.95;;;30.10;93.80;;;;;;4153891;28;20095;-68
2022/03/29 08:48:59;;;;;;;9.45;5.85;;;30.00;93.70;;;;;;4152626;28;20073;-68
2022/03/29 08:51:07;;;;;;;7.82;6.38;;;30.00;93.80;;;;;;4151301;28;20077;-68
2022/03/29 08:53:35;;;;;;;11.32;6.35;;;29.80;94.20;;;;;;4152092;28;20049;-69
2022/03/29 08:55:44;;;;;;;8.13;5.95;;;29.80;94.60;;;;;;4151237;28;20049;-68
2022/03/29 08:57:55;;;;;;;10.60;6.35;;;29.60;94.50;;;;;;4154465;28;20507;-68
2022/03/29 09:00:01;;;;;;;9.05;6.68;;;29.60;95.10;;;;;;4148971;28;20143;-68
2022/03/29 09:02:17;;;;;;;8.48;6.13;;;29.50;95.20;;;;;;4105560;28;20057;-67
2022/03/29 09:04:25;;;;;;;10.63;6.38;;;29.60;94.90;;;;;;4151038;28;20061;-68
2022/03/29 09:06:32;;;;;;;10.80;6.63;;;29.70;94.80;;;;;;4151553;28;20095;-67
2022/03/29 09:08:48;;;;;;;9.85;6.35;;;29.80;94.80;;;;;;4152237;28;20057;-68
2022/03/29 09:10:57;;;;;;;8.13;6.35;;;29.80;94.50;;;;;;4152546;28;20049;-68
2022/03/29 09:13:20;;;;;;;12.48;6.13;;;29.70;94.70;;;;;;4151093;28;20136;-67
2022/03/29 09:15:36;;;;;;;6.60;5.70;;;29.60;94.60;;;;;;4152205;28;20535;-67
2022/03/29 09:17:45;;;;;;;7.05;5.60;;;29.50;94.60;;;;;;4153420;28;20053;-67
2022/03/29 09:19:51;;;;;;;8.52;5.85;;;29.60;94.60;;;;;;4154624;28;20053;-68
2022/03/29 09:21:59;;;;;;;7.50;5.55;;;29.70;94.10;;;;;;4152875;28;20045;-68
2022/03/29 09:24:08;;;;;;;5.85;5.07;;;29.50;93.30;;;;;;4152273;28;20053;-67
2022/03/29 09:26:30;;;;;;;7.10;5.32;;;29.50;93.80;;;;;;4153619;28;20092;-67
2022/03/29 09:28:38;;;;;;;6.80;5.32;;;29.50;93.90;;;;;;4151296;28;20099;-66
2022/03/29 09:30:52;;;;;;;8.20;5.93;;;29.40;94.10;;;;;;4182069;28;20132;-68
2022/03/29 09:33:05;;;;;;;8.10;5.70;;;29.50;94.50;;;;;;4157458;28;20053;-67
2022/03/29 09:35:25;;;;;;;7.20;6.03;;;29.40;94.20;;;;;;4158089;28;20045;-67
2022/03/29 09:37:46;;;;;;;9.93;6.40;;;29.30;94.70;;;;;;4142117;28;20046;-68
2022/03/29 09:39:53;;;;;;;8.60;5.85;;;29.30;94.70;;;;;;4155801;28;20056;-67
2022/03/29 09:42:34;;;;;;;7.47;5.88;;;29.30;94.60;;;;;;4182793;28;20049;-69
2022/03/29 09:44:45;;;;;;;6.35;5.57;;;29.40;95.00;;;;;;4158058;28;20516;-68
2022/03/29 09:47:02;;;;;;;5.78;5.22;;;29.40;95.00;;;;;;4155261;28;20055;-68
2022/03/29 09:49:12;;;;;;;7.43;5.57;;;29.30;94.50;;;;;;4156134;28;20064;-68
2022/03/29 09:51:21;;;;;;;8.32;5.70;;;29.30;94.40;;;;;;4155669;28;20069;-68
2022/03/29 09:53:46;;;;;;;7.90;5.53;;;29.30;94.70;;;;;;4155545;28;20052;-68
2022/03/29 09:56:00;;;;;;;7.20;6.03;;;29.10;94.60;;;;;;4153869;28;20052;-68
2022/03/29 09:58:13;;;;;;;6.13;5.05;;;29.00;94.80;;;;;;4155920;28;20049;-68
2022/03/29 10:00:32;;;;;;;9.43;5.88;;;28.90;94.90;;;;;;4153159;28;20045;-69
2022/03/29 10:02:47;;;;;;;7.18;5.90;;;29.00;95.10;;;;;;4156251;28;20081;-68
2022/03/29 10:04:54;;;;;;;8.80;6.43;;;29.00;95.10;;;;;;4156771;28;20049;-69
2022/03/29 10:07:03;;;;;;;7.97;6.13;;;29.10;95.30;;;;;;4153127;28;20057;-68
2022/03/29 10:11:37;;;;;;;6.43;5.50;;;29.10;95.20;;;;;;4155003;28;20059;-66
2022/03/29 10:13:46;;;;;;;8.68;5.97;;;29.00;95.50;;;;;;4185656;28;20041;-67
2022/03/29 10:15:53;;;;;;;6.63;5.40;;;29.00;95.60;;;;;;4157853;28;20042;-68
2022/03/29 10:18:00;;;;;;;10.45;5.88;;;29.00;95.70;;;;;;4159426;28;20119;-70
2022/03/29 10:20:06;;;;;;;11.07;6.28;;;29.00;95.70;;;;;;4134238;28;20054;-68
2022/03/29 10:22:13;;;;;;;11.75;6.25;;;29.10;95.80;;;;;;4138697;28;20176;-68
2022/03/29 10:24:23;;;;;;;7.82;5.95;;;29.10;95.80;;;;;;4124329;28;20870;-68
2022/03/29 10:26:30;;;;;;;8.93;6.30;;;29.10;95.70;;;;;;4138414;28;20089;-68
2022/03/29 10:28:37;;;;;;;9.13;6.10;;;29.20;95.60;;;;;;4135798;28;20042;-67
2022/03/29 10:30:53;;;;;;;8.48;5.68;;;29.30;95.60;;;;;;4135262;28;20042;-67
2022/03/29 10:33:23;;;;;;;9.63;6.38;;;29.30;95.60;;;;;;4135092;28;20046;-67
2022/03/29 10:35:36;;;;;;;10.40;6.38;;;29.30;95.50;;;;;;4140741;28;20540;-67
2022/03/29 10:37:53;;;;;;;8.07;6.30;;;29.30;95.50;;;;;;4109648;28;20557;-67
2022/03/29 10:40:04;;;;;;;8.50;5.88;;;29.40;95.30;;;;;;4134792;28;20077;-68
2022/03/29 10:42:25;;;;;;;7.85;5.75;;;29.30;95.30;;;;;;4134176;28;20564;-67
2022/03/29 10:45:05;;;;;;;8.43;6.32;;;29.30;95.30;;;;;;4138587;28;20057;-67
2022/03/29 10:47:38;;;;;;;8.68;6.75;;;29.30;95.40;;;;;;4138603;28;20049;-68
2022/03/29 10:50:07;;;;;;;8.93;6.82;;;29.30;95.60;;;;;;4119183;28;20050;-68
2022/03/29 10:52:20;;;;;;;7.28;6.00;;;29.30;95.70;;;;;;4159208;28;20064;-68
2022/03/29 10:54:38;;;;;;;7.88;6.45;;;29.10;95.70;;;;;;4165151;28;20542;-69
2022/03/29 10:57:07;;;;;;;13.10;7.00;;;29.00;95.90;;;;;;4164838;28;20052;-68
2022/03/29 10:59:17;;;;;;;10.65;6.60;;;28.90;96.30;;;;;;4156447;28;20044;-65
2022/03/29 11:01:33;;;;;;;;;;;29.00;96.30;;;;;;4161693;28;20104;-68
2022/03/29 11:04:03;;;;;;;10.90;7.13;;;28.90;96.40;;;;;;4162059;28;19925;-68
2022/03/29 11:06:17;;;;;;;8.32;6.75;;;28.90;96.30;;;;;;4163104;28;20045;-68
2022/03/29 11:08:24;;;;;;;8.68;6.80;;;28.90;96.40;;;;;;4163494;28;20080;-68
2022/03/29 11:10:40;;;;;;;9.13;7.30;;;28.80;96.60;;;;;;4164502;28;20084;-67
2022/03/29 11:12:53;;;;;;;12.00;7.63;;;28.80;96.60;;;;;;4165074;28;20049;-68
2022/03/29 11:15:35;;;;;;;11.73;7.68;;;28.80;96.70;;;;;;4164503;28;20095;-69
2022/03/29 11:17:45;;;;;;;12.05;8.38;;;28.90;96.90;;;;;;4158388;28;20045;-68
2022/03/29 11:19:51;;;;;;;12.50;8.13;;;28.90;97.00;;;;;;4163124;28;20053;-68
2022/03/29 11:21:57;;;;;;;13.52;7.63;;;28.90;97.30;;;;;;4164292;28;20068;-69
2022/03/29 11:24:07;;;;;;;14.48;8.35;;;28.90;97.00;;;;;;4129137;28;20057;-68
2022/03/29 11:26:21;;;;;;;11.98;7.97;;;28.90;97.10;;;;;;4129568;28;20047;-68
2022/03/29 11:28:50;;;;;;;10.20;7.72;;;28.90;97.10;;;;;;4129720;28;20042;-69
2022/03/29 11:31:07;;;;;;;10.85;8.27;;;28.90;97.20;;;;;;4112023;28;20134;-69
2022/03/29 11:33:31;;;;;;;15.18;8.88;;;28.90;97.30;;;;;;4113031;28;20050;-69
2022/03/29 11:35:42;;;;;;;25.10;12.80;;;28.90;97.50;;;;;;4103886;28;20083;-69
2022/03/29 11:37:51;;;;;;;19.50;12.68;;;28.90;97.90;;;;;;4065731;29;20143;-70
2022/03/29 11:39:58;;;;;;;16.63;11.45;;;28.90;97.90;;;;;;4065784;29;20079;-70
2022/03/29 11:42:09;;;;;;;14.70;10.13;;;28.90;98.10;;;;;;4061590;29;20468;-69
2022/03/29 11:44:27;;;;;;;14.38;9.70;;;28.80;98.20;;;;;;4065790;29;20150;-69
2022/03/29 11:46:59;;;;;;;17.35;10.80;;;28.80;98.20;;;;;;4065469;29;20123;-69
2022/03/29 11:49:05;;;;;;;17.35;10.05;;;28.80;98.20;;;;;;4065817;29;20048;-68